createdAt,value
2019-02-26T00:00:29.474Z,14.70
2019-02-26T00:03:01.766Z,15.78
2019-02-26T00:05:28.445Z,15.70
2019-02-26T00:07:57.700Z,14.98
2019-02-26T00:10:26.731Z,15.72
2019-02-26T00:12:55.024Z,15.03
2019-02-26T00:15:22.710Z,14.65
2019-02-26T00:17:50.868Z,14.98
2019-02-26T00:20:19.845Z,15.83
2019-02-26T00:22:47.531Z,14.03
2019-02-26T00:25:16.163Z,15.10
2019-02-26T00:27:44.651Z,14.70
2019-02-26T00:30:14.369Z,14.20
2019-02-26T00:32:42.151Z,13.80
2019-02-26T00:35:09.812Z,13.58
2019-02-26T00:37:37.459Z,13.62
2019-02-26T00:40:05.390Z,13.58
2019-02-26T00:42:34.259Z,14.00
2019-02-26T00:45:04.778Z,14.98
2019-02-26T00:47:34.005Z,15.13
2019-02-26T00:50:01.568Z,13.98
2019-02-26T00:52:30.414Z,13.58
2019-02-26T00:55:00.012Z,14.68
2019-02-26T00:57:29.472Z,14.25
2019-02-26T00:59:57.658Z,15.10
2019-02-26T01:02:25.350Z,16.02
2019-02-26T01:04:52.993Z,13.88
2019-02-26T01:07:21.368Z,15.28
2019-02-26T01:09:50.609Z,14.10
2019-02-26T01:12:19.676Z,15.30
2019-02-26T01:14:48.171Z,15.08
2019-02-26T01:17:18.647Z,15.48
2019-02-26T01:19:46.435Z,14.63
2019-02-26T01:22:14.206Z,15.63
2019-02-26T01:24:41.833Z,15.53
2019-02-26T01:27:09.569Z,15.28
2019-02-26T01:29:37.196Z,15.95
2019-02-26T01:32:08.870Z,17.35
2019-02-26T01:34:34.376Z,15.98
2019-02-26T01:37:03.264Z,17.55
2019-02-26T01:39:31.496Z,15.70
2019-02-26T01:41:59.190Z,16.42
2019-02-26T01:44:30.417Z,17.00
2019-02-26T01:46:57.814Z,17.37
2019-02-26T01:49:26.706Z,16.00
2019-02-26T01:51:55.264Z,16.65
2019-02-26T01:54:24.986Z,16.97
2019-02-26T01:56:53.410Z,16.12
2019-02-26T01:59:21.265Z,15.95
2019-02-26T02:01:49.740Z,16.30
2019-02-26T02:04:19.606Z,16.48
2019-02-26T02:06:47.275Z,16.73
2019-02-26T02:09:19.963Z,17.00
2019-02-26T02:11:47.504Z,14.85
2019-02-26T02:14:17.024Z,17.12
2019-02-26T02:16:44.639Z,15.90
2019-02-26T02:19:15.455Z,16.90
2019-02-26T02:21:41.897Z,15.25
2019-02-26T02:24:12.682Z,16.32
2019-02-26T02:26:42.940Z,17.73
2019-02-26T02:29:08.552Z,17.77
2019-02-26T02:31:37.838Z,16.05
2019-02-26T02:34:05.783Z,15.93
2019-02-26T02:36:33.440Z,15.80
2019-02-26T02:39:01.153Z,16.00
2019-02-26T02:41:28.904Z,16.25
2019-02-26T02:43:56.616Z,14.85
2019-02-26T02:46:24.281Z,15.30
2019-02-26T02:48:51.944Z,13.80
2019-02-26T02:51:19.597Z,14.60
2019-02-26T02:53:47.818Z,14.20
2019-02-26T02:56:17.974Z,14.65
2019-02-26T02:58:46.889Z,15.53
2019-02-26T03:01:16.660Z,15.35
2019-02-26T03:03:45.265Z,15.60
2019-02-26T03:06:14.352Z,15.23
2019-02-26T03:08:42.233Z,17.32
2019-02-26T03:11:11.511Z,18.05
2019-02-26T03:13:40.347Z,16.23
2019-02-26T03:16:08.621Z,14.28
2019-02-26T03:18:36.305Z,14.63
2019-02-26T03:21:04.851Z,14.03
2019-02-26T03:23:33.966Z,15.28
2019-02-26T03:26:02.006Z,14.07
2019-02-26T03:28:34.904Z,15.10
2019-02-26T03:30:59.193Z,16.30
2019-02-26T03:33:26.848Z,14.90
2019-02-26T03:35:54.583Z,15.50
2019-02-26T03:38:23.473Z,14.78
2019-02-26T03:40:52.784Z,14.45
2019-02-26T03:43:21.202Z,15.40
2019-02-26T03:45:48.916Z,15.13
2019-02-26T03:48:20.304Z,14.47
2019-02-26T03:50:46.163Z,15.40
2019-02-26T03:53:13.827Z,14.05
2019-02-26T03:55:43.861Z,15.95
2019-02-26T03:58:11.214Z,15.83
2019-02-26T04:00:41.693Z,13.40
2019-02-26T04:03:09.311Z,15.78
2019-02-26T04:05:37.805Z,13.00
2019-02-26T04:08:05.591Z,14.93
2019-02-26T04:10:33.228Z,15.23
2019-02-26T04:13:00.881Z,15.08
2019-02-26T04:15:30.990Z,15.50
2019-02-26T04:17:58.077Z,15.63
2019-02-26T04:20:27.713Z,16.50
2019-02-26T04:22:56.805Z,15.45
2019-02-26T04:25:38.037Z,19.98
2019-02-26T04:28:44.503Z,19.55
2019-02-26T04:32:00.753Z,16.82
2019-02-26T04:34:59.163Z,17.10
2019-02-26T04:38:03.347Z,16.87
2019-02-26T04:40:40.994Z,17.50
2019-02-26T04:43:46.765Z,17.73
2019-02-26T04:46:42.198Z,18.40
2019-02-26T04:49:09.893Z,18.77
2019-02-26T04:51:39.890Z,19.10
2019-02-26T04:54:07.087Z,19.20
2019-02-26T04:56:37.074Z,19.10
2019-02-26T04:59:07.031Z,18.70
2019-02-26T05:01:34.778Z,18.87
2019-02-26T05:04:02.747Z,17.67
2019-02-26T05:06:30.375Z,18.10
2019-02-26T05:09:00.212Z,17.48
2019-02-26T05:11:31.672Z,19.17
2019-02-26T05:13:56.985Z,18.90
2019-02-26T05:16:26.626Z,19.40
2019-02-26T05:18:54.889Z,17.52
2019-02-26T05:21:24.479Z,16.62
2019-02-26T05:23:55.064Z,18.75
2019-02-26T05:26:22.611Z,17.77
2019-02-26T05:28:51.585Z,18.37
2019-02-26T05:31:19.545Z,20.92
2019-02-26T05:33:49.568Z,18.00
2019-02-26T05:36:17.285Z,17.40
2019-02-26T05:38:45.017Z,18.65
2019-02-26T05:41:12.724Z,15.95
2019-02-26T05:43:40.411Z,15.78
2019-02-26T05:46:08.052Z,15.75
2019-02-26T05:48:37.165Z,15.58
2019-02-26T05:51:06.558Z,15.53
2019-02-26T05:53:34.762Z,16.15
2019-02-26T05:56:02.430Z,16.40
2019-02-26T05:58:30.153Z,15.30
2019-02-26T06:00:57.804Z,15.23
2019-02-26T06:03:25.512Z,16.55
2019-02-26T06:05:55.622Z,15.50
2019-02-26T06:08:25.614Z,16.02
2019-02-26T06:10:52.196Z,16.95
2019-02-26T06:13:19.818Z,14.93
2019-02-26T06:15:47.510Z,16.90
2019-02-26T06:18:15.239Z,17.70
2019-02-26T06:20:42.920Z,16.50
2019-02-26T06:23:10.577Z,16.10
2019-02-26T06:25:38.252Z,16.02
2019-02-26T06:28:09.602Z,16.93
2019-02-26T06:30:35.410Z,16.20
2019-02-26T06:33:04.353Z,15.00
2019-02-26T06:35:33.670Z,15.45
2019-02-26T06:38:02.604Z,17.48
2019-02-26T06:40:34.476Z,15.03
2019-02-26T06:43:01.045Z,14.80
2019-02-26T06:45:28.717Z,17.23
2019-02-26T06:47:58.242Z,15.32
2019-02-26T06:50:25.850Z,18.10
2019-02-26T06:52:53.567Z,20.12
2019-02-26T06:55:21.196Z,17.95
2019-02-26T06:57:50.771Z,18.35
2019-02-26T07:00:21.245Z,18.23
2019-02-26T07:02:47.944Z,19.32
2019-02-26T07:05:15.600Z,15.95
2019-02-26T07:07:43.320Z,16.32
2019-02-26T07:10:15.951Z,15.95
2019-02-26T07:12:43.130Z,17.05
2019-02-26T07:15:12.472Z,17.95
2019-02-26T07:17:41.156Z,18.00
2019-02-26T07:20:09.694Z,17.48
2019-02-26T07:22:39.261Z,16.75
2019-02-26T07:25:08.337Z,16.80
2019-02-26T07:27:38.341Z,18.45
2019-02-26T07:30:06.070Z,17.70
2019-02-26T07:32:33.768Z,17.15
2019-02-26T07:35:01.428Z,16.52
2019-02-26T07:37:30.910Z,17.82
2019-02-26T07:39:58.615Z,17.82
2019-02-26T07:42:26.229Z,20.48
2019-02-26T07:44:54.231Z,21.40
2019-02-26T07:47:24.419Z,19.85
2019-02-26T07:49:56.500Z,19.67
2019-02-26T07:52:24.201Z,19.23
2019-02-26T07:54:52.340Z,18.62
2019-02-26T07:57:20.719Z,16.90
2019-02-26T07:59:50.226Z,17.67
2019-02-26T08:02:18.067Z,17.02
2019-02-26T08:04:45.692Z,18.77
2019-02-26T08:07:13.417Z,17.73
2019-02-26T08:09:41.077Z,17.57
2019-02-26T08:12:11.114Z,19.73
2019-02-26T08:14:40.204Z,18.45
2019-02-26T08:17:07.808Z,17.23
2019-02-26T08:19:37.438Z,18.25
2019-02-26T08:22:06.063Z,18.20
2019-02-26T08:24:33.729Z,17.27
2019-02-26T08:27:03.277Z,17.17
2019-02-26T08:29:31.848Z,19.73
2019-02-26T08:32:02.010Z,18.73
2019-02-26T08:34:29.836Z,20.50
2019-02-26T08:36:57.476Z,19.40
2019-02-26T08:39:25.295Z,21.10
2019-02-26T08:42:02.040Z,19.37
2019-02-26T08:44:29.767Z,16.73
2019-02-26T08:46:57.392Z,16.63
2019-02-26T08:49:25.130Z,17.00
2019-02-26T08:51:52.800Z,16.73
2019-02-26T08:54:21.882Z,17.50
2019-02-26T08:56:50.014Z,18.13
2019-02-26T08:59:19.592Z,18.20
2019-02-26T09:01:47.204Z,20.20
2019-02-26T09:04:16.929Z,19.27
2019-02-26T09:06:44.332Z,19.80
2019-02-26T09:09:11.987Z,19.67
2019-02-26T09:11:39.667Z,17.20
2019-02-26T09:14:09.824Z,18.90
2019-02-26T09:16:36.808Z,16.50
2019-02-26T09:19:04.448Z,16.57
2019-02-26T09:21:32.072Z,15.97
2019-02-26T09:24:01.905Z,17.23
2019-02-26T09:26:29.436Z,16.33
2019-02-26T09:28:57.224Z,15.03
2019-02-26T09:31:24.945Z,15.87
2019-02-26T09:33:52.611Z,16.43
2019-02-26T09:36:23.138Z,16.10
2019-02-26T09:38:51.435Z,16.30
2019-02-26T09:41:21.310Z,16.43
2019-02-26T09:43:48.676Z,16.37
2019-02-26T09:46:18.789Z,16.13
2019-02-26T09:48:46.161Z,16.77
2019-02-26T09:51:14.796Z,18.20
2019-02-26T09:53:43.289Z,18.23
2019-02-26T09:56:11.005Z,17.90
2019-02-26T09:58:40.423Z,18.53
2019-02-26T10:01:09.102Z,18.53
2019-02-26T10:03:39.074Z,17.40
2019-02-26T10:06:07.245Z,18.20
2019-02-26T10:08:34.930Z,17.27
2019-02-26T10:11:04.792Z,17.93
2019-02-26T10:13:32.071Z,15.57
2019-02-26T10:16:01.978Z,17.17
2019-02-26T10:18:30.952Z,16.63
2019-02-26T10:20:58.691Z,16.43
2019-02-26T10:23:28.472Z,17.60
2019-02-26T10:25:57.940Z,17.30
2019-02-26T10:28:25.294Z,19.30
2019-02-26T10:30:54.991Z,16.53
2019-02-26T10:33:22.439Z,19.10
2019-02-26T10:35:50.146Z,18.30
2019-02-26T10:38:17.774Z,17.50
2019-02-26T10:40:53.384Z,18.67
2019-02-26T10:43:14.921Z,18.83
2019-02-26T10:45:44.750Z,18.63
2019-02-26T10:48:13.728Z,19.00
2019-02-26T10:50:43.040Z,19.03
2019-02-26T10:53:13.769Z,18.00
2019-02-26T10:55:41.896Z,18.57
2019-02-26T10:58:12.100Z,18.37
2019-02-26T11:00:39.581Z,18.57
2019-02-26T11:03:09.184Z,18.33
2019-02-26T11:05:37.742Z,18.47
2019-02-26T11:08:09.162Z,20.40
2019-02-26T11:10:39.459Z,19.60
2019-02-26T11:13:05.148Z,18.87
2019-02-26T11:15:33.897Z,19.20
2019-02-26T11:18:02.314Z,19.97
2019-02-26T11:20:30.945Z,19.43
2019-02-26T11:22:59.609Z,18.93
2019-02-26T11:25:27.719Z,18.77
2019-02-26T11:27:55.501Z,19.33
2019-02-26T11:30:25.872Z,19.13
2019-02-26T11:32:56.146Z,18.23
2019-02-26T11:35:24.451Z,18.93
2019-02-26T11:37:53.146Z,18.80
2019-02-26T11:40:23.010Z,18.67
2019-02-26T11:42:51.282Z,19.00
2019-02-26T11:45:19.435Z,17.10
2019-02-26T11:47:47.168Z,19.63
2019-02-26T11:50:16.033Z,18.73
2019-02-26T11:52:43.717Z,18.80
2019-02-26T11:55:11.697Z,19.17
2019-02-26T11:57:40.395Z,18.03
2019-02-26T12:00:17.744Z,17.67
2019-02-26T12:02:43.584Z,17.03
2019-02-26T12:05:11.485Z,18.03
2019-02-26T12:07:39.223Z,18.17
2019-02-26T12:10:11.672Z,18.17
2019-02-26T12:12:37.822Z,17.87
2019-02-26T12:15:09.427Z,16.67
2019-02-26T12:17:37.872Z,17.50
2019-02-26T12:20:07.208Z,16.87
2019-02-26T12:22:35.027Z,16.27
2019-02-26T12:25:05.022Z,15.90
2019-02-26T12:27:32.154Z,15.27
2019-02-26T12:29:59.935Z,14.93
2019-02-26T12:32:29.625Z,14.30
2019-02-26T12:34:57.042Z,14.80
2019-02-26T12:37:24.696Z,15.23
2019-02-26T12:39:54.796Z,13.47
2019-02-26T12:42:21.818Z,14.53
2019-02-26T12:44:49.680Z,15.10
2019-02-26T12:47:21.006Z,14.40
2019-02-26T12:49:46.686Z,13.90
2019-02-26T12:52:15.188Z,14.00
2019-02-26T12:54:43.815Z,13.60
2019-02-26T12:57:11.508Z,13.23
2019-02-26T12:59:39.149Z,11.73
2019-02-26T13:02:10.095Z,12.43
2019-02-26T13:04:37.806Z,11.53
2019-02-26T13:07:08.632Z,11.20
2019-02-26T13:09:39.118Z,12.03
2019-02-26T13:12:04.772Z,11.90
2019-02-26T13:14:32.417Z,11.20
2019-02-26T13:17:00.270Z,11.37
2019-02-26T13:19:32.680Z,11.40
2019-02-26T13:22:05.088Z,9.90
2019-02-26T13:24:26.939Z,10.13
2019-02-26T13:26:59.266Z,10.00
2019-02-26T13:29:25.275Z,11.27
2019-02-26T13:31:56.424Z,11.23
2019-02-26T13:34:23.073Z,9.50
2019-02-26T13:36:53.767Z,10.97
2019-02-26T13:39:25.575Z,8.20
2019-02-26T13:41:54.353Z,7.90
2019-02-26T13:44:19.251Z,8.23
2019-02-26T13:46:46.892Z,8.43
2019-02-26T13:49:14.683Z,8.10
2019-02-26T13:51:42.297Z,9.37
2019-02-26T13:54:10.010Z,9.33
2019-02-26T13:56:37.624Z,10.13
2019-02-26T13:59:05.323Z,9.90
2019-02-26T14:01:32.999Z,10.17
2019-02-26T14:04:00.692Z,9.17
2019-02-26T14:06:28.750Z,9.83
2019-02-26T14:08:56.475Z,10.07
2019-02-26T14:11:25.193Z,8.47
2019-02-26T14:13:52.825Z,8.47
2019-02-26T14:16:20.550Z,9.10
2019-02-26T14:18:48.316Z,9.23
2019-02-26T14:21:16.036Z,8.23
2019-02-26T14:23:43.713Z,8.40
2019-02-26T14:26:11.357Z,7.63
2019-02-26T14:28:39.179Z,7.83
2019-02-26T14:31:08.416Z,8.07
2019-02-26T14:33:36.396Z,8.37
2019-02-26T14:36:04.224Z,7.90
2019-02-26T14:38:31.912Z,8.03
2019-02-26T14:41:00.162Z,8.93
2019-02-26T14:43:28.700Z,8.63
2019-02-26T14:45:56.534Z,8.67
2019-02-26T14:48:24.246Z,8.73
2019-02-26T14:50:51.857Z,8.97
2019-02-26T14:53:19.536Z,7.97
2019-02-26T14:55:47.162Z,8.43
2019-02-26T14:58:14.776Z,8.67
2019-02-26T15:00:42.497Z,9.07
2019-02-26T15:03:10.216Z,8.83
2019-02-26T15:05:37.918Z,9.40
2019-02-26T15:08:05.622Z,9.87
2019-02-26T15:10:33.369Z,9.27
2019-02-26T15:13:00.993Z,9.40
2019-02-26T15:15:28.831Z,8.43
2019-02-26T15:17:56.497Z,10.03
2019-02-26T15:20:26.093Z,9.30
2019-02-26T15:22:54.037Z,9.40
2019-02-26T15:25:22.301Z,10.77
2019-02-26T15:27:49.949Z,8.70
2019-02-26T15:30:17.965Z,9.07
2019-02-26T15:32:45.616Z,8.10
2019-02-26T15:35:13.451Z,8.90
2019-02-26T15:37:41.447Z,8.33
2019-02-26T15:40:10.173Z,8.93
2019-02-26T15:42:37.827Z,8.37
2019-02-26T15:45:08.440Z,8.70
2019-02-26T15:47:36.101Z,8.43
2019-02-26T15:50:06.757Z,8.40
2019-02-26T15:52:34.361Z,8.50
2019-02-26T15:55:02.007Z,8.97
2019-02-26T15:57:31.110Z,8.97
2019-02-26T15:59:59.148Z,8.33
2019-02-26T16:02:28.525Z,9.13
2019-02-26T16:04:56.479Z,8.97
2019-02-26T16:07:24.189Z,8.30
2019-02-26T16:09:51.822Z,9.27
2019-02-26T16:12:19.500Z,7.90
2019-02-26T16:14:47.165Z,8.57
2019-02-26T16:17:14.861Z,8.07
2019-02-26T16:19:43.717Z,8.53
2019-02-26T16:22:11.395Z,7.83
2019-02-26T16:24:39.121Z,8.50
2019-02-26T16:27:06.745Z,8.83
2019-02-26T16:29:34.440Z,8.27
2019-02-26T16:32:02.650Z,8.53
2019-02-26T16:34:31.529Z,8.23
2019-02-26T16:36:59.210Z,7.60
2019-02-26T16:39:26.848Z,7.87
2019-02-26T16:41:54.841Z,7.53
2019-02-26T16:44:24.621Z,7.60
2019-02-26T16:46:52.001Z,7.70
2019-02-26T16:49:21.146Z,7.97
2019-02-26T16:51:48.841Z,8.50
2019-02-26T16:54:16.500Z,8.00
2019-02-26T16:56:44.176Z,7.93
2019-02-26T16:59:11.813Z,7.10
2019-02-26T17:01:41.185Z,8.43
2019-02-26T17:04:08.935Z,7.50
2019-02-26T17:06:36.572Z,9.10
2019-02-26T17:09:05.573Z,8.17
2019-02-26T17:11:33.217Z,7.77
2019-02-26T17:14:01.180Z,7.57
2019-02-26T17:16:31.174Z,8.03
2019-02-26T17:18:58.329Z,8.60
2019-02-26T17:21:25.988Z,8.70
2019-02-26T17:23:53.671Z,8.73
2019-02-26T17:26:21.361Z,9.70
2019-02-26T17:28:49.036Z,10.27
2019-02-26T17:31:16.650Z,10.33
2019-02-26T17:33:44.752Z,9.43
2019-02-26T17:36:13.754Z,10.30
2019-02-26T17:38:41.470Z,9.47
2019-02-26T17:41:09.970Z,9.50
2019-02-26T17:43:38.592Z,10.17
2019-02-26T17:46:07.846Z,11.40
2019-02-26T17:48:43.283Z,10.77
2019-02-26T17:51:05.174Z,10.40
2019-02-26T17:53:32.859Z,10.87
2019-02-26T17:56:00.492Z,10.70
2019-02-26T17:58:28.161Z,11.40
2019-02-26T18:00:56.648Z,10.90
2019-02-26T18:03:25.698Z,10.77
2019-02-26T18:05:53.507Z,9.97
2019-02-26T18:08:21.204Z,9.83
2019-02-26T18:10:48.898Z,10.37
2019-02-26T18:13:20.444Z,9.67
2019-02-26T18:15:45.994Z,10.83
2019-02-26T18:18:13.669Z,10.70
2019-02-26T18:20:41.330Z,11.90
2019-02-26T18:23:09.028Z,11.77
2019-02-26T18:25:36.698Z,12.67
2019-02-26T18:28:08.314Z,13.37
2019-02-26T18:30:33.851Z,11.23
2019-02-26T18:33:01.486Z,12.20
2019-02-26T18:35:29.181Z,14.10
2019-02-26T18:37:56.843Z,15.20
2019-02-26T18:40:27.919Z,14.50
2019-02-26T18:42:53.954Z,15.20
2019-02-26T18:45:27.427Z,17.43
2019-02-26T18:47:52.316Z,18.67
2019-02-26T18:50:19.930Z,19.70
2019-02-26T18:52:47.624Z,16.37
2019-02-26T18:55:16.027Z,17.63
2019-02-26T18:57:44.174Z,17.00
2019-02-26T19:00:14.325Z,17.20
2019-02-26T19:02:42.245Z,15.90
2019-02-26T19:05:10.484Z,15.63
2019-02-26T19:07:38.133Z,15.10
2019-02-26T19:10:07.650Z,12.80
2019-02-26T19:12:35.266Z,12.80
2019-02-26T19:15:03.268Z,12.93
2019-02-26T19:17:30.920Z,14.63
2019-02-26T19:19:58.647Z,15.60
2019-02-26T19:22:26.716Z,15.07
2019-02-26T19:24:54.758Z,14.13
2019-02-26T19:27:22.454Z,14.97
2019-02-26T19:29:50.121Z,13.77
2019-02-26T19:32:17.926Z,12.63
2019-02-26T19:34:45.567Z,12.57
2019-02-26T19:37:13.255Z,15.50
2019-02-26T19:39:40.906Z,15.67
2019-02-26T19:42:08.577Z,16.67
2019-02-26T19:44:36.501Z,14.07
2019-02-26T19:47:04.245Z,17.30
2019-02-26T19:49:31.972Z,19.60
2019-02-26T19:51:59.639Z,20.33
2019-02-26T19:54:27.330Z,16.80
2019-02-26T19:56:56.965Z,17.17
2019-02-26T19:59:24.572Z,15.77
2019-02-26T20:01:52.229Z,17.43
2019-02-26T20:04:19.870Z,17.17
2019-02-26T20:06:47.542Z,16.53
2019-02-26T20:09:16.627Z,14.70
2019-02-26T20:11:44.353Z,18.07
2019-02-26T20:14:14.647Z,17.57
2019-02-26T20:16:41.532Z,15.47
2019-02-26T20:19:09.332Z,16.53
2019-02-26T20:21:37.101Z,16.17
2019-02-26T20:24:04.785Z,16.77
2019-02-26T20:26:32.448Z,16.07
2019-02-26T20:29:00.077Z,16.43
2019-02-26T20:31:28.958Z,16.77
2019-02-26T20:33:56.753Z,15.00
2019-02-26T20:36:24.404Z,13.60
2019-02-26T20:38:52.093Z,13.93
2019-02-26T20:41:22.249Z,14.53
2019-02-26T20:43:50.195Z,13.23
2019-02-26T20:46:17.806Z,14.13
2019-02-26T20:48:45.549Z,13.57
2019-02-26T20:51:13.286Z,13.33
2019-02-26T20:53:40.966Z,14.40
2019-02-26T20:56:08.697Z,13.70
2019-02-26T20:58:36.386Z,12.07
2019-02-26T21:01:04.040Z,11.90
2019-02-26T21:03:31.740Z,11.87
2019-02-26T21:05:59.454Z,12.63
2019-02-26T21:08:30.772Z,12.80
2019-02-26T21:10:56.576Z,12.90
2019-02-26T21:13:24.246Z,12.67
2019-02-26T21:15:51.894Z,12.83
2019-02-26T21:18:19.601Z,14.00
2019-02-26T21:20:49.162Z,12.40
2019-02-26T21:23:16.742Z,13.20
2019-02-26T21:25:47.399Z,11.67
2019-02-26T21:28:13.834Z,14.77
2019-02-26T21:30:45.579Z,15.03
2019-02-26T21:33:10.963Z,14.73
2019-02-26T21:35:38.604Z,12.73
2019-02-26T21:38:06.532Z,14.60
2019-02-26T21:40:34.285Z,14.07
2019-02-26T21:43:02.543Z,12.90
2019-02-26T21:45:30.232Z,13.30
2019-02-26T21:47:57.897Z,13.70
2019-02-26T21:50:25.606Z,13.07
2019-02-26T21:53:00.428Z,13.10
2019-02-26T21:55:22.720Z,13.97
2019-02-26T21:57:54.501Z,14.30
2019-02-26T22:00:20.364Z,12.97
2019-02-26T22:02:51.998Z,13.63
2019-02-26T22:05:17.687Z,13.47
2019-02-26T22:07:45.367Z,14.07
2019-02-26T22:10:13.544Z,12.95
2019-02-26T22:12:41.305Z,13.10
2019-02-26T22:15:10.927Z,13.40
2019-02-26T22:17:38.747Z,12.23
2019-02-26T22:20:09.271Z,13.83
2019-02-26T22:22:37.074Z,14.50
2019-02-26T22:25:09.694Z,13.48
2019-02-26T22:27:36.076Z,14.83
2019-02-26T22:30:05.106Z,14.57
2019-02-26T22:32:34.998Z,15.20
2019-02-26T22:35:02.239Z,15.27
2019-02-26T22:37:29.925Z,14.30
2019-02-26T22:39:57.578Z,14.13
2019-02-26T22:42:26.495Z,14.85
2019-02-26T22:44:54.831Z,14.43
2019-02-26T22:47:22.964Z,14.23
2019-02-26T22:49:53.787Z,13.45
2019-02-26T22:52:20.172Z,15.28
2019-02-26T22:54:47.885Z,12.55
2019-02-26T22:57:15.573Z,13.80
2019-02-26T22:59:43.247Z,13.88
2019-02-26T23:02:12.104Z,12.75
2019-02-26T23:04:39.763Z,14.80
2019-02-26T23:07:07.606Z,14.03
2019-02-26T23:09:35.843Z,15.43
2019-02-26T23:12:05.099Z,15.08
2019-02-26T23:14:33.117Z,14.00
2019-02-26T23:17:01.091Z,13.50
2019-02-26T23:19:29.032Z,15.85
2019-02-26T23:21:56.704Z,15.15
2019-02-26T23:24:27.746Z,16.37
2019-02-26T23:26:53.953Z,15.93
2019-02-26T23:29:21.659Z,16.52
2019-02-26T23:31:49.803Z,16.23
2019-02-26T23:34:21.908Z,16.23
2019-02-26T23:36:47.044Z,16.35
2019-02-26T23:39:15.348Z,16.57
2019-02-26T23:41:43.007Z,16.40
2019-02-26T23:44:10.669Z,16.80
2019-02-26T23:46:38.331Z,15.98
2019-02-26T23:49:06.033Z,16.70
2019-02-26T23:51:33.696Z,15.38
2019-02-26T23:54:01.319Z,16.60
2019-02-26T23:56:29.011Z,16.93
2019-02-26T23:58:56.671Z,15.80
